Time;durP1;ratioP1;P1;durP2;ratioP2;P2;SDS_P1;SDS_P2;PMS_P1;PMS_P2;Temp;Humidity;BMP_temperature;BMP_pressure;BME280_temperature;BME280_humidity;BME280_pressure;Samples;Min_cycle;Max_cycle;Signal;HPM_P1;HPM_P2
2022/10/13 00:00:19;;;;;;;;;44.50;38.00;;;;;15.87;58.80;101722.13;4924037;28;45386;-84
2022/10/13 00:02:44;;;;;;;;;42.50;36.00;;;;;15.86;58.87;101726.56;4928543;28;45768;-84
2022/10/13 00:05:09;;;;;;;;;44.00;36.00;;;;;15.84;58.97;101731.00;4922945;28;45423;-85
2022/10/13 00:07:35;;;;;;;;;50.25;38.00;;;;;15.78;58.77;101712.50;4907082;28;45442;-84
2022/10/13 00:10:00;;;;;;;;;47.75;38.25;;;;;15.81;59.21;101720.44;4910050;28;45499;-85
2022/10/13 00:12:26;;;;;;;;;42.50;36.00;;;;;15.73;59.28;101703.69;4906803;28;47800;-84
2022/10/13 00:14:51;;;;;;;;;47.25;39.25;;;;;15.82;59.29;101727.53;4923788;28;45471;-85
2022/10/13 00:17:16;;;;;;;;;44.50;36.50;;;;;15.85;58.95;101724.81;4924210;28;45492;-84
2022/10/13 00:19:42;;;;;;;;;31.00;28.50;;;;;15.81;59.01;101708.94;4923967;28;45333;-84
2022/10/13 00:22:07;;;;;;;;;38.25;33.75;;;;;15.87;59.08;101707.09;4923732;28;46648;-85
2022/10/13 00:24:33;;;;;;;;;42.25;35.50;;;;;15.91;59.27;101707.94;4907190;28;45411;-85
2022/10/13 00:26:58;;;;;;;;;37.50;34.00;;;;;15.93;59.18;101703.50;4908623;28;45266;-85
2022/10/13 00:29:24;;;;;;;;;40.50;34.00;;;;;15.88;59.17;101686.75;4909094;28;45427;-84
2022/10/13 00:31:49;;;;;;;;;44.75;36.50;;;;;15.93;59.19;101687.56;4911539;28;48104;-84
2022/10/13 00:34:14;;;;;;;;;42.75;35.25;;;;;15.95;59.32;101680.44;4929194;28;45229;-85
2022/10/13 00:36:40;;;;;;;;;43.75;34.25;;;;;15.87;59.39;101674.34;4912444;28;45710;-85
2022/10/13 00:39:05;;;;;;;;;38.25;33.00;;;;;15.93;59.26;101681.34;4929930;28;45210;-85
2022/10/13 00:41:31;;;;;;;;;44.00;35.00;;;;;15.87;59.41;101682.31;4914434;28;46088;-85
2022/10/13 00:44:05;;;;;;;;;43.25;35.75;;;;;15.86;59.60;101685.88;4931959;28;45220;-85
2022/10/13 00:46:33;;;;;;;;;38.75;34.00;;;;;15.76;59.80;101673.56;4915119;28;44622;-85
2022/10/13 00:49:08;;;;;;;;;40.25;36.25;;;;;15.73;59.31;101679.81;4922142;28;45113;-85
2022/10/13 00:51:39;;;;;;;;;35.50;31.75;;;;;15.71;59.68;101683.38;4921595;28;46732;-85
2022/10/13 00:54:06;;;;;;;;;45.00;36.75;;;;;15.79;60.10;101698.31;4937374;28;44739;-85
2022/10/13 00:56:34;;;;;;;;;43.00;36.75;;;;;15.68;60.05;101681.59;4917592;28;45274;-85
2022/10/13 00:59:01;;;;;;;;;36.00;33.00;;;;;15.79;59.65;101694.78;4924253;28;44832;-85
2022/10/13 01:01:26;;;;;;;;;40.50;34.50;;;;;15.74;59.78;101692.16;4919999;28;47481;-85
2022/10/13 01:03:52;;;;;;;;;44.25;34.50;;;;;15.76;59.88;101702.78;4934965;28;44748;-85
2022/10/13 01:06:18;;;;;;;;;35.00;32.50;;;;;15.69;60.00;101682.50;4907998;28;45293;-85
2022/10/13 01:08:43;;;;;;;;;33.75;31.00;;;;;15.65;59.74;101689.56;4908217;28;46439;-85
2022/10/13 01:11:35;;;;;;;;;35.00;31.50;;;;;15.69;59.78;101691.38;4923967;28;45458;-85
2022/10/13 01:14:19;;;;;;;;;35.25;28.75;;;;;15.74;60.14;101693.94;4906395;28;45423;-85
2022/10/13 01:17:21;;;;;;;;;34.00;29.25;;;;;15.74;59.71;101685.97;4923565;28;45456;-86
2022/10/13 01:20:09;;;;;;;;;35.00;32.00;;;;;15.69;59.79;101677.19;4905726;28;45370;-85
2022/10/13 01:23:11;;;;;;;;;34.75;33.00;;;;;15.77;60.15;101688.59;4906416;28;47374;-85
2022/10/13 01:26:01;;;;;;;;;36.00;34.00;;;;;15.69;60.17;101675.44;4897698;28;45488;-85
2022/10/13 01:28:40;;;;;;;;;31.50;30.50;;;;;15.69;60.03;101671.88;4923879;28;45282;-85
2022/10/13 01:31:20;;;;;;;;;36.00;31.75;;;;;15.74;59.92;101667.41;4922953;28;45288;-85
2022/10/13 01:33:59;;;;;;;;;36.50;33.00;;;;;15.69;60.14;101658.59;4922722;28;45488;-85
2022/10/13 01:36:37;;;;;;;;;31.75;29.50;;;;;15.66;59.85;101673.66;4910649;28;45190;-85
2022/10/13 01:39:12;;;;;;;;;37.00;31.25;;;;;15.69;59.95;101662.16;4928993;28;45507;-85
2022/10/13 01:41:42;;;;;;;;;34.50;31.00;;;;;15.69;60.20;101662.16;4907141;28;46281;-86
2022/10/13 01:44:22;;;;;;;;;40.25;34.00;;;;;15.69;60.04;101666.56;4908357;28;46372;-85
2022/10/13 01:46:50;;;;;;;;;27.25;27.00;;;;;15.74;60.22;101680.66;4925973;28;45292;-86
2022/10/13 01:49:19;;;;;;;;;25.50;24.50;;;;;15.78;60.31;101680.63;4910077;28;45355;-86
2022/10/13 01:51:46;;;;;;;;;26.75;24.25;;;;;15.84;59.83;101671.72;4909964;28;45861;-86
2022/10/13 01:54:12;;;;;;;;;18.75;18.25;;;;;15.84;59.74;101654.00;4908700;28;47298;-87
2022/10/13 01:56:37;;;;;;;;;15.25;14.75;;;;;15.94;59.69;101656.56;4924691;28;45706;-85
2022/10/13 01:59:11;;;;;;;;;18.00;18.00;;;;;15.99;59.60;101665.38;4930565;28;45197;-85
2022/10/13 02:01:46;;;;;;;;;16.50;15.00;;;;;16.03;59.44;101669.75;4914566;28;45281;-86
2022/10/13 02:04:39;;;;;;;;;17.00;15.75;;;;;16.05;59.73;101663.50;4908377;28;47504;-86
2022/10/13 02:07:20;;;;;;;;;16.75;14.50;;;;;16.08;59.90;101665.25;4926132;28;45436;-86
2022/10/13 02:10:00;;;;;;;;;13.25;13.25;;;;;16.09;59.78;101659.94;4909998;28;45341;-86
2022/10/13 02:12:36;;;;;;;;;17.75;16.25;;;;;16.09;60.15;101648.41;4908858;28;45296;-85
2022/10/13 02:15:03;;;;;;;;;14.25;13.75;;;;;16.04;59.76;101619.25;4910894;28;47457;-87
2022/10/13 02:17:30;;;;;;;;;11.00;10.75;;;;;16.13;60.00;101631.56;4926146;28;45767;-86
2022/10/13 02:19:56;;;;;;;;;13.25;12.00;;;;;16.12;60.14;101626.25;4910494;28;45512;-85
2022/10/13 02:22:28;;;;;;;;;13.00;12.50;;;;;16.24;60.16;101645.56;4932303;28;45348;-85
2022/10/13 02:24:54;;;;;;;;;10.00;10.00;;;;;16.27;60.01;101642.00;4913228;28;46324;-85
2022/10/13 02:27:21;;;;;;;;;13.00;13.00;;;;;16.21;60.06;101628.81;4914618;28;45420;-85
2022/10/13 02:29:51;;;;;;;;;12.75;12.00;;;;;16.30;59.90;101644.59;4914799;28;45426;-84
2022/10/13 02:32:16;;;;;;;;;10.50;9.00;;;;;16.28;59.67;101619.84;4931364;28;45394;-85
2022/10/13 02:34:42;;;;;;;;;7.75;7.00;;;;;16.24;59.98;101607.50;4914292;28;46754;-85
2022/10/13 02:37:07;;;;;;;;;10.00;8.50;;;;;16.31;59.71;101611.84;4918340;28;44757;-86
2022/10/13 02:39:32;;;;;;;;;11.00;9.75;;;;;16.28;60.03;101594.16;4927238;28;44759;-84
2022/10/13 02:41:58;;;;;;;;;9.75;9.00;;;;;16.23;59.64;101574.75;4928380;28;44799;-85
2022/10/13 02:44:23;;;;;;;;;10.50;9.50;;;;;16.25;60.03;101583.56;4926066;28;47266;-86
2022/10/13 02:46:49;;;;;;;;;10.00;8.75;;;;;16.33;60.07;101602.03;4909264;28;45335;-85
2022/10/13 02:49:14;;;;;;;;;11.00;10.00;;;;;16.31;59.90;101599.44;4926259;28;45439;-84
2022/10/13 02:51:39;;;;;;;;;9.75;9.75;;;;;16.34;59.85;101605.59;4925937;28;45445;-85
2022/10/13 02:54:05;;;;;;;;;11.75;11.50;;;;;16.28;59.93;101586.19;4907734;28;46927;-85
2022/10/13 02:56:30;;;;;;;;;13.25;12.00;;;;;16.37;59.34;101608.22;4909157;28;45468;-85
2022/10/13 02:58:56;;;;;;;;;12.00;11.50;;;;;16.40;59.91;101613.47;4909393;28;45391;-84
2022/10/13 03:01:21;;;;;;;;;9.00;8.75;;;;;16.33;59.62;101599.38;4923869;28;45374;-85
2022/10/13 03:03:46;;;;;;;;;13.00;12.00;;;;;16.41;59.92;101605.50;4913176;28;47049;-85
2022/10/13 03:06:12;;;;;;;;;14.50;13.25;;;;;16.43;60.15;101605.47;4908039;28;45430;-85
2022/10/13 03:08:37;;;;;;;;;11.25;11.25;;;;;16.31;60.04;101594.13;4913935;28;45877;-84
2022/10/13 03:11:03;;;;;;;;;14.75;12.00;;;;;16.42;59.86;101607.25;4925646;28;45529;-85
2022/10/13 03:13:28;;;;;;;;;12.00;10.00;;;;;16.31;59.98;101580.81;4924885;28;45328;-85
2022/10/13 03:15:54;;;;;;;;;12.75;11.50;;;;;16.31;60.05;101572.84;4907567;28;45785;-85
2022/10/13 03:18:19;;;;;;;;;12.00;11.00;;;;;16.31;60.04;101578.16;4925363;28;45344;-85
2022/10/13 03:20:54;;;;;;;;;13.75;12.00;;;;;16.41;59.84;101586.00;4908219;28;45571;-85
2022/10/13 03:23:20;;;;;;;;;13.00;10.75;;;;;16.38;60.04;101584.25;4925269;28;45572;-85
2022/10/13 03:25:45;;;;;;;;;11.00;10.50;;;;;16.35;60.05;101568.38;4908165;28;45723;-85
2022/10/13 03:28:10;;;;;;;;;12.25;12.00;;;;;16.38;59.75;101581.59;4925172;28;45913;-85
2022/10/13 03:30:36;;;;;;;;;11.50;10.75;;;;;16.38;59.95;101584.25;4925020;28;45419;-84
2022/10/13 03:33:03;;;;;;;;;11.00;10.00;;;;;16.37;59.97;101573.66;4907556;28;47848;-84
2022/10/13 03:35:29;;;;;;;;;11.25;9.50;;;;;16.39;60.04;101566.56;4907735;28;45407;-84
2022/10/13 03:37:54;;;;;;;;;11.50;9.25;;;;;16.38;59.85;101557.69;4929848;28;45228;-84
2022/10/13 03:40:20;;;;;;;;;10.00;9.50;;;;;16.37;59.96;101547.09;4914146;28;45458;-85
2022/10/13 03:42:45;;;;;;;;;11.00;10.00;;;;;16.37;60.02;101545.31;4913320;28;47122;-84
2022/10/13 03:45:11;;;;;;;;;11.00;10.50;;;;;16.42;59.93;101546.13;4923407;28;45280;-84
2022/10/13 03:47:36;;;;;;;;;11.75;10.00;;;;;16.42;59.83;101548.78;4907486;28;45354;-84
2022/10/13 03:50:04;;;;;;;;;13.75;11.00;;;;;16.41;59.90;101555.00;4908882;28;45866;-85
2022/10/13 03:52:29;;;;;;;;;12.25;10.00;;;;;16.36;59.87;101532.94;4907468;28;46950;-83
2022/10/13 03:54:54;;;;;;;;;9.00;9.00;;;;;16.43;60.16;101539.88;4923828;28;45216;-82
2022/10/13 03:57:20;;;;;;;;;12.25;10.00;;;;;16.36;59.95;101524.97;4925393;28;45218;-82
2022/10/13 03:59:45;;;;;;;;;12.00;10.25;;;;;16.39;59.88;101540.84;4909292;28;45595;-79
2022/10/13 04:02:11;;;;;;;;;10.00;8.00;;;;;16.45;59.73;101547.84;4925595;28;46123;-80
2022/10/13 04:04:37;;;;;;;;;12.00;10.00;;;;;16.41;59.67;101538.16;4923498;28;45237;-80
2022/10/13 04:07:02;;;;;;;;;13.00;12.00;;;;;16.44;59.66;101538.09;4923784;28;45177;-80
2022/10/13 04:09:28;;;;;;;;;8.25;8.25;;;;;16.43;59.64;101533.69;4923237;28;45543;-80
2022/10/13 04:11:53;;;;;;;;;14.25;12.25;;;;;16.38;59.56;101536.41;4906589;28;46184;-80
2022/10/13 04:14:19;;;;;;;;;11.00;9.75;;;;;16.44;59.57;101549.63;4906187;28;45397;-80
2022/10/13 04:16:45;;;;;;;;;9.75;8.00;;;;;16.41;59.46;101547.03;4923316;28;45473;-81
2022/10/13 04:19:13;;;;;;;;;15.00;12.00;;;;;16.47;59.42;101548.72;4905984;28;45738;-81
2022/10/13 04:21:39;;;;;;;;;13.25;11.00;;;;;16.49;59.53;101554.88;4905597;28;46111;-80
2022/10/13 04:24:05;;;;;;;;;7.00;6.25;;;;;16.48;59.84;101543.34;4923392;28;45277;-80
2022/10/13 04:26:33;;;;;;;;;9.00;8.25;;;;;16.45;59.51;101548.72;4906477;28;45328;-82
2022/10/13 04:29:00;;;;;;;;;10.00;9.00;;;;;16.53;59.49;101570.75;4905579;28;46103;-80
2022/10/13 04:31:28;;;;;;;;;13.75;10.75;;;;;16.48;59.39;101555.78;4905445;28;47391;-78
2022/10/13 04:33:53;;;;;;;;;11.00;11.00;;;;;16.50;59.39;101561.97;4922968;28;45458;-81
2022/10/13 04:36:19;;;;;;;;;14.25;13.75;;;;;16.53;59.89;101556.59;4906281;28;45313;-81
2022/10/13 04:38:45;;;;;;;;;11.00;9.00;;;;;16.46;59.64;101546.94;4906931;28;46013;-81
2022/10/13 04:41:13;;;;;;;;;15.75;11.50;;;;;16.51;59.68;101558.38;4923920;28;45534;-81
2022/10/13 04:43:39;;;;;;;;;9.75;8.00;;;;;16.46;59.65;101561.09;4907024;28;45548;-82
2022/10/13 04:46:07;;;;;;;;;12.25;12.00;;;;;16.43;59.98;101555.84;4922860;28;45390;-82
2022/10/13 04:48:32;;;;;;;;;12.25;11.50;;;;;16.35;59.96;101535.59;4906957;28;45456;-80
2022/10/13 04:51:07;;;;;;;;;12.00;11.00;;;;;16.31;60.09;101535.66;4923252;28;45479;-80
2022/10/13 04:53:34;;;;;;;;;12.00;12.00;;;;;16.34;60.39;101545.34;4906290;28;45475;-81
2022/10/13 04:56:03;;;;;;;;;10.25;8.75;;;;;16.21;60.30;101528.72;4906102;28;45245;-81
2022/10/13 04:58:28;;;;;;;;;10.75;9.75;;;;;16.17;60.46;101526.09;4926160;28;45818;-80
2022/10/13 05:00:54;;;;;;;;;10.50;9.75;;;;;16.22;60.35;101541.06;4899870;28;47168;-80
2022/10/13 05:03:19;;;;;;;;;13.25;11.75;;;;;16.12;60.88;101523.53;4912233;28;45389;-79
2022/10/13 05:05:45;;;;;;;;;12.75;11.00;;;;;16.16;61.11;101545.63;4922611;28;45491;-82
2022/10/13 05:08:10;;;;;;;;;14.50;11.75;;;;;16.14;61.10;101544.75;4905382;28;45486;-80
2022/10/13 05:10:36;;;;;;;;;12.25;10.25;;;;;16.10;61.35;101535.97;4922183;28;46117;-82
2022/10/13 05:13:02;;;;;;;;;10.50;9.25;;;;;15.94;61.31;101518.47;4903946;28;45520;-81
2022/10/13 05:15:27;;;;;;;;;8.75;8.75;;;;;15.92;61.36;101521.13;4904444;28;45645;-81
2022/10/13 05:17:52;;;;;;;;;9.50;8.50;;;;;15.98;61.62;101536.13;4921692;28;45396;-81
2022/10/13 05:20:18;;;;;;;;;9.75;8.50;;;;;15.97;61.74;101534.38;4904874;28;47676;-81
2022/10/13 05:22:43;;;;;;;;;12.50;10.00;;;;;15.93;61.70;101538.84;4922199;28;45398;-81
2022/10/13 05:25:09;;;;;;;;;14.25;11.75;;;;;15.86;61.89;101529.19;4905142;28;45494;-81
2022/10/13 05:27:34;;;;;;;;;11.00;9.75;;;;;15.90;61.84;101536.22;4922326;28;45533;-81
2022/10/13 05:30:00;;;;;;;;;13.50;12.25;;;;;15.80;61.81;101521.31;4922134;28;46308;-81
2022/10/13 05:32:25;;;;;;;;;9.75;9.75;;;;;15.84;61.97;101523.03;4922030;28;45264;-81
2022/10/13 05:34:50;;;;;;;;;22.50;20.25;;;;;15.79;62.20;101506.25;4921742;28;45237;-81
2022/10/13 05:37:17;;;;;;;;;13.50;12.75;;;;;15.76;62.22;101511.63;4904910;28;45665;-81
2022/10/13 05:39:43;;;;;;;;;11.25;7.25;;;;;15.78;62.56;101502.75;4921874;28;46154;-81
2022/10/13 05:42:09;;;;;;;;;10.50;10.50;;;;;15.85;62.44;101512.41;4922060;28;45503;-81
2022/10/13 05:44:36;;;;;;;;;10.50;10.00;;;;;15.83;62.59;101500.91;4904793;28;45400;-81
2022/10/13 05:47:02;;;;;;;;;8.25;8.25;;;;;15.82;62.49;101487.63;4904476;28;45758;-81
2022/10/13 05:49:28;;;;;;;;;8.25;7.00;;;;;15.88;62.71;101492.88;4891929;28;46459;-81
2022/10/13 05:51:58;;;;;;;;;12.00;10.75;;;;;15.93;62.44;101495.47;4921700;28;45378;-81
2022/10/13 05:54:34;;;;;;;;;10.50;10.50;;;;;15.89;62.32;101489.31;4893083;28;45434;-81
2022/10/13 05:57:26;;;;;;;;;10.50;9.50;;;;;15.97;62.16;101497.19;4921493;28;45369;-81
2022/10/13 06:00:03;;;;;;;;;7.75;7.75;;;;;15.92;62.08;101499.03;4919515;28;46467;-81
2022/10/13 06:02:37;;;;;;;;;8.25;8.00;;;;;15.97;62.39;101516.66;4921920;28;45526;-81
2022/10/13 06:05:05;;;;;;;;;10.75;9.00;;;;;15.92;62.07;101507.00;4904313;28;45324;-81
2022/10/13 06:07:30;;;;;;;;;12.00;10.00;;;;;15.92;62.15;101514.97;4907626;28;45653;-81
2022/10/13 06:09:57;;;;;;;;;9.25;7.50;;;;;15.96;62.27;101516.66;4921047;28;46118;-81
2022/10/13 06:12:22;;;;;;;;;9.50;9.50;;;;;15.90;62.29;101509.66;4904159;28;45761;-82
2022/10/13 06:14:48;;;;;;;;;11.00;8.50;;;;;15.91;62.12;101508.78;4904347;28;45476;-81
2022/10/13 06:17:13;;;;;;;;;12.75;10.50;;;;;15.94;62.22;101524.66;4921421;28;45254;-81
2022/10/13 06:19:39;;;;;;;;;12.25;10.25;;;;;15.81;62.02;101504.47;4921230;28;45519;-81
2022/10/13 06:22:04;;;;;;;;;7.75;6.00;;;;;15.88;62.25;101516.78;4920031;28;46778;-81
2022/10/13 06:24:29;;;;;;;;;6.25;6.25;;;;;15.84;61.61;101500.00;4921528;28;45218;-81
2022/10/13 06:26:55;;;;;;;;;6.75;6.75;;;;;15.90;61.41;101509.66;4921916;28;45216;-81
2022/10/13 06:29:20;;;;;;;;;7.50;7.00;;;;;15.80;61.57;101497.44;4924794;28;45281;-81
2022/10/13 06:31:46;;;;;;;;;5.50;5.50;;;;;15.83;61.35;101510.66;4934399;28;45280;-81
2022/10/13 06:34:12;;;;;;;;;7.75;6.75;;;;;15.77;61.25;101498.34;4917159;28;45237;-82
2022/10/13 06:36:37;;;;;;;;;8.00;7.00;;;;;15.70;61.46;101490.47;4917868;28;45300;-81
2022/10/13 06:39:02;;;;;;;;;10.75;7.75;;;;;15.79;61.63;101507.13;4931871;28;45221;-81
2022/10/13 06:41:28;;;;;;;;;7.75;6.00;;;;;15.66;61.49;101486.94;4936436;28;45504;-80
2022/10/13 06:43:53;;;;;;;;;7.00;6.25;;;;;15.76;61.69;101508.97;4933023;28;45434;-80
2022/10/13 06:46:19;;;;;;;;;7.50;6.50;;;;;15.74;61.66;101506.31;4913748;28;45568;-81
2022/10/13 06:48:48;;;;;;;;;9.25;7.00;;;;;15.74;61.43;101502.78;4930066;28;45326;-81
2022/10/13 06:51:13;;;;;;;;;8.75;7.00;;;;;15.74;61.49;101506.31;4916970;28;45337;-80
2022/10/13 06:53:39;;;;;;;;;7.50;6.75;;;;;15.77;61.41;101510.72;4928482;28;45187;-81
2022/10/13 06:56:06;;;;;;;;;8.75;8.75;;;;;15.72;61.68;101504.63;4907380;28;45934;-81
2022/10/13 06:58:33;;;;;;;;;9.50;9.25;;;;;15.80;61.79;101518.66;4925517;28;47583;-81
2022/10/13 07:00:58;;;;;;;;;9.00;6.00;;;;;15.73;61.24;101501.03;4919073;28;45268;-81
2022/10/13 07:03:24;;;;;;;;;9.25;8.75;;;;;15.79;61.39;101527.50;4931158;28;45436;-81
2022/10/13 07:05:50;;;;;;;;;6.75;6.75;;;;;15.73;61.63;101525.81;4928553;28;45496;-81
2022/10/13 07:08:15;;;;;;;;;7.50;6.75;;;;;15.77;61.63;101530.19;4913595;28;46893;-82
2022/10/13 07:10:41;;;;;;;;;6.00;6.00;;;;;15.79;61.52;101535.47;4923779;28;45463;-82
2022/10/13 07:13:07;;;;;;;;;8.00;7.00;;;;;15.73;61.84;101531.13;4908289;28;45329;-81
2022/10/13 07:15:32;;;;;;;;;8.75;7.00;;;;;15.70;61.59;101522.31;4924163;28;45384;-81
2022/10/13 07:17:58;;;;;;;;;6.00;6.00;;;;;15.60;61.73;101519.75;4923616;28;45364;-81
2022/10/13 07:20:24;;;;;;;;;6.00;6.00;;;;;15.59;61.60;101522.44;4906891;28;45230;-81
2022/10/13 07:22:52;;;;;;;;;8.50;7.75;;;;;15.51;62.38;101517.19;4906848;28;45305;-81
2022/10/13 07:25:17;;;;;;;;;9.00;9.00;;;;;15.44;62.85;101511.06;4911472;28;45463;-81
2022/10/13 07:27:43;;;;;;;;;11.00;8.75;;;;;15.47;63.09;101539.34;4922008;28;47485;-84
2022/10/13 07:30:09;;;;;;;;;8.00;6.75;;;;;15.41;63.40;101532.34;4907105;28;45647;-85
2022/10/13 07:32:35;;;;;;;;;9.50;7.75;;;;;15.32;63.74;101529.81;4922958;28;45360;-83
2022/10/13 07:35:00;;;;;;;;;8.25;7.00;;;;;15.27;63.58;101531.63;4923529;28;45512;-85
2022/10/13 07:37:26;;;;;;;;;7.25;7.25;;;;;15.32;63.97;101534.25;4923474;28;45464;-85
2022/10/13 07:39:52;;;;;;;;;9.00;8.00;;;;;15.38;64.51;101526.19;4905833;28;45420;-87
2022/10/13 07:42:18;;;;;;;;;9.00;8.00;;;;;15.36;63.91;101523.56;4906451;28;45329;-86
2022/10/13 07:44:43;;;;;;;;;10.00;7.00;;;;;15.49;64.43;101542.88;4923940;28;45466;-88
2022/10/13 07:47:09;;;;;;;;;7.50;6.75;;;;;15.53;64.31;101544.63;4906199;28;47088;-86
2022/10/13 07:49:34;;;;;;;;;11.50;10.50;;;;;15.53;64.21;101543.72;4923382;28;45230;-88
2022/10/13 07:52:00;;;;;;;;;12.50;8.25;;;;;15.53;64.29;101547.28;4906709;28;45296;-87
2022/10/13 07:54:26;;;;;;;;;10.25;9.25;;;;;15.61;64.11;101550.72;4916608;28;45178;-87
2022/10/13 07:56:52;;;;;;;;;8.00;6.25;;;;;15.65;64.20;101549.75;4908136;28;46665;-86
2022/10/13 07:59:18;;;;;;;;;10.75;8.75;;;;;15.60;63.81;101543.63;4909742;28;45424;-85
2022/10/13 08:01:44;;;;;;;;;7.00;6.00;;;;;15.63;63.81;101548.88;4924425;28;45296;-86
2022/10/13 08:04:09;;;;;;;;;5.00;4.75;;;;;15.58;63.43;101539.22;4924087;28;45519;-85
2022/10/13 08:06:35;;;;;;;;;8.00;7.50;;;;;15.64;63.48;101563.94;4906728;28;47154;-86
2022/10/13 08:09:00;;;;;;;;;7.75;6.75;;;;;15.63;63.41;101564.81;4923500;28;45284;-85
2022/10/13 08:11:26;;;;;;;;;9.00;8.00;;;;;15.54;64.05;101556.09;4905889;28;45431;-85
2022/10/13 08:13:52;;;;;;;;;8.50;6.75;;;;;15.60;63.41;101558.69;4923694;28;45423;-86
2022/10/13 08:16:17;;;;;;;;;8.00;6.50;;;;;15.65;63.57;101559.50;4921242;28;46967;-85
2022/10/13 08:18:44;;;;;;;;;5.00;5.00;;;;;15.69;63.44;101553.31;4907960;28;45847;-85
2022/10/13 08:21:13;;;;;;;;;6.00;5.00;;;;;15.61;63.51;101540.09;4905768;28;45276;-86
2022/10/13 08:23:38;;;;;;;;;7.50;7.25;;;;;15.69;63.21;101544.44;4905631;28;45578;-87
2022/10/13 08:26:04;;;;;;;;;7.00;7.00;;;;;15.73;63.31;101552.38;4907161;28;47763;-85
2022/10/13 08:28:29;;;;;;;;;5.00;5.00;;;;;15.72;63.12;101553.28;4906796;28;45304;-87
2022/10/13 08:30:58;;;;;;;;;5.00;5.00;;;;;15.81;63.00;101566.41;4923209;28;45435;-85
2022/10/13 08:33:25;;;;;;;;;8.25;8.25;;;;;15.91;63.01;101564.53;4905719;28;45301;-85
2022/10/13 08:35:52;;;;;;;;;6.25;5.50;;;;;15.98;62.73;101567.97;4922423;28;45425;-87
2022/10/13 08:38:17;;;;;;;;;4.75;4.75;;;;;16.03;62.56;101563.50;4905755;28;45455;-85
2022/10/13 08:40:50;;;;;;;;;7.75;5.75;;;;;16.08;62.49;101566.97;4905741;28;45735;-85
2022/10/13 08:43:19;;;;;;;;;7.25;6.25;;;;;16.15;62.52;101560.69;4905954;28;45509;-85
2022/10/13 08:45:47;;;;;;;;;4.00;4.00;;;;;16.28;62.03;101567.59;4922439;28;45414;-85
2022/10/13 08:48:20;;;;;;;;;8.50;5.00;;;;;16.23;61.91;101550.81;4905348;28;45490;-85
2022/10/13 08:50:50;;;;;;;;;3.75;3.75;;;;;16.36;61.93;101564.81;4921669;28;45375;-84
2022/10/13 08:53:28;;;;;;;;;7.00;7.00;;;;;16.50;61.83;101565.47;4906758;28;45372;-84
2022/10/13 08:56:08;;;;;;;;;6.50;6.50;;;;;16.53;61.51;101546.81;4904906;28;47088;-84
2022/10/13 08:58:35;;;;;;;;;8.00;6.25;;;;;16.68;61.41;101556.34;4909989;28;45332;-84
2022/10/13 09:01:10;;;;;;;;;5.75;5.00;;;;;16.80;60.93;101554.44;4928705;28;45317;-85
2022/10/13 09:03:51;;;;;;;;;6.00;6.00;;;;;16.89;60.86;101559.56;4919436;28;45237;-85
2022/10/13 09:06:30;;;;;;;;;5.25;5.00;;;;;16.96;60.38;101554.13;4928618;28;46717;-80
2022/10/13 09:09:05;;;;;;;;;4.00;4.00;;;;;16.93;60.36;101535.56;4908986;28;45268;-84
2022/10/13 09:11:36;;;;;;;;;5.25;4.75;;;;;17.04;60.16;101561.13;4925231;28;45181;-81
2022/10/13 09:14:11;;;;;;;;;5.00;4.75;;;;;17.03;60.11;101548.72;4901709;28;45378;-84
2022/10/13 09:16:41;;;;;;;;;4.75;4.75;;;;;17.05;60.15;101550.44;4909186;28;47065;-84
2022/10/13 09:19:35;;;;;;;;;7.25;6.00;;;;;16.98;59.99;101560.31;4929029;28;45291;-87
2022/10/13 09:22:24;;;;;;;;;6.25;5.25;;;;;16.91;59.81;101561.31;4911304;28;45243;-82
2022/10/13 09:25:10;;;;;;;;;4.75;4.75;;;;;16.77;60.10;101542.06;4912735;28;45406;-85
2022/10/13 09:27:47;;;;;;;;;4.00;4.00;;;;;16.71;60.18;101544.78;4926227;28;45625;-84
2022/10/13 09:30:21;;;;;;;;;4.00;4.00;;;;;16.68;60.36;101550.13;4906969;29;45377;-86
2022/10/13 09:32:47;;;;;;;;;3.75;3.00;;;;;16.64;60.32;101538.69;4910345;28;45467;-83
2022/10/13 09:35:22;;;;;;;;;6.25;5.25;;;;;16.69;60.77;101536.84;4927468;28;45319;-84
2022/10/13 09:38:21;;;;;;;;;4.00;4.00;;;;;16.67;60.64;101521.81;4908955;28;47093;-84
2022/10/13 09:41:04;;;;;;;;;4.25;4.25;;;;;16.85;60.50;101531.31;4922023;28;45564;-84
2022/10/13 09:43:44;;;;;;;;;4.00;4.00;;;;;16.98;60.33;101524.84;4905583;28;45370;-83
2022/10/13 09:46:11;;;;;;;;;3.00;3.00;;;;;17.04;60.50;101538.03;4922629;28;45495;-83
2022/10/13 09:48:41;;;;;;;;;3.33;3.00;;;;;17.11;60.20;101539.69;4922117;28;45498;-84
2022/10/13 09:51:26;;;;;;;;;4.00;4.00;;;;;17.26;60.02;101541.19;4902796;28;46040;-84
2022/10/13 09:53:51;;;;;;;;;3.00;3.00;;;;;17.24;60.09;101535.03;4919421;28;45765;-83
2022/10/13 09:56:47;;;;;;;;;5.67;4.00;;;;;17.28;59.56;101546.50;4919420;28;45593;-84
2022/10/13 09:59:34;;;;;;;;;5.00;5.00;;;;;17.28;59.86;101552.69;4898336;28;47213;-84
2022/10/13 10:02:25;;;;;;;;;4.00;4.00;;;;;17.20;60.10;101543.97;4926743;28;45448;-86
2022/10/13 10:04:52;;;;;;;;;5.33;4.33;;;;;17.18;59.81;101537.78;4906693;28;45356;-85
2022/10/13 10:07:24;;;;;;;;;5.67;4.67;;;;;17.20;60.11;101539.53;4906761;28;45705;-82
2022/10/13 10:10:03;;;;;;;;;3.50;3.50;;;;;17.23;60.38;101537.72;4906278;28;47521;-83
2022/10/13 10:12:35;;;;;;;;;6.25;4.00;;;;;17.31;60.09;101541.97;4895359;28;45717;-83
2022/10/13 10:15:01;;;;;;;;;3.00;3.00;;;;;17.34;60.53;101541.91;4923364;28;45376;-82
2022/10/13 10:17:59;;;;;;;;;6.00;5.00;;;;;17.36;59.93;101541.91;4905811;28;45482;-82
2022/10/13 10:20:36;;;;;;;;;4.00;4.00;;;;;17.32;60.15;101545.50;4889998;29;47864;-83
2022/10/13 10:23:05;;;;;;;;;5.67;5.67;;;;;17.36;60.30;101552.56;4905692;28;45631;-84
2022/10/13 10:25:41;;;;;;;;;5.33;5.33;;;;;17.34;60.24;101543.72;4906420;28;45284;-82
2022/10/13 10:28:25;;;;;;;;;2.67;2.67;;;;;17.45;60.22;101540.84;4915369;28;45495;-82
2022/10/13 10:31:02;;;;;;;;;4.75;3.50;;;;;17.45;60.12;101527.53;4923622;28;45269;-84
2022/10/13 10:34:08;;;;;;;;;5.33;5.00;;;;;17.53;60.35;101525.59;4917936;28;45277;-83
2022/10/13 10:36:50;;;;;;;;;4.00;4.00;;;;;17.54;60.33;101520.25;4923724;28;45504;-84
2022/10/13 10:39:45;;;;;;;;;4.67;4.00;;;;;17.54;60.00;101514.91;4922915;28;45293;-85
2022/10/13 10:42:37;;;;;;;;;5.00;5.00;;;;;17.60;60.07;101511.25;4901525;28;47323;-86
2022/10/13 10:45:12;;;;;;;;;4.00;4.00;;;;;17.66;60.48;101524.44;4899459;28;45559;-84
2022/10/13 10:47:45;;;;;;;;;5.25;5.25;;;;;17.73;60.08;101520.75;4903489;28;45803;-84
2022/10/13 10:50:15;;;;;;;;;5.33;4.33;;;;;17.74;59.80;101514.50;4914275;28;45459;-85
2022/10/13 10:53:00;;;;;;;;;6.00;5.25;;;;;17.73;60.13;101526.06;4905998;28;47010;-81
2022/10/13 10:55:36;;;;;;;;;4.75;4.75;;;;;17.60;59.90;101504.13;4909145;28;45313;-85
2022/10/13 10:58:36;;;;;;;;;7.25;5.75;;;;;17.61;60.21;101515.66;4925634;28;45295;-84
2022/10/13 11:01:27;;;;;;;;;5.25;2.00;;;;;17.57;60.37;101512.19;4917520;28;46673;-81
2022/10/13 11:04:23;;;;;;;;;6.00;6.00;;;;;17.62;60.11;101526.28;4914770;28;46875;-85
2022/10/13 11:06:48;;;;;;;;;6.50;5.00;;;;;17.60;60.56;101521.91;4909978;28;45503;-82
2022/10/13 11:09:13;;;;;;;;;6.50;6.00;;;;;17.53;60.33;101499.84;4902415;28;45395;-83
2022/10/13 11:11:41;;;;;;;;;5.75;5.75;;;;;17.60;60.56;101509.47;4922265;28;45710;-84
2022/10/13 11:14:06;;;;;;;;;5.00;5.00;;;;;17.64;60.40;101515.59;4919808;28;45467;-83
2022/10/13 11:16:51;;;;;;;;;6.67;6.00;;;;;17.58;60.94;101497.09;4903930;28;45474;-84
2022/10/13 11:19:35;;;;;;;;;5.67;4.67;;;;;17.59;60.72;101506.84;4922389;28;45818;-87
2022/10/13 11:22:00;;;;;;;;;5.25;5.25;;;;;17.68;61.22;101508.44;4910883;28;45425;-84
2022/10/13 11:24:38;;;;;;;;;7.00;6.00;;;;;17.70;61.22;101503.97;4904997;28;46975;-81
2022/10/13 11:27:06;;;;;;;;;7.00;7.00;;;;;17.67;61.30;101494.25;4901907;28;45631;-81
2022/10/13 11:30:05;;;;;;;;;6.00;4.00;;;;;17.66;61.74;101500.47;4921573;28;45444;-81